Time;durP1;ratioP1;P1;durP2;ratioP2;P2;SDS_P1;SDS_P2;PMS_P1;PMS_P2;Temp;Humidity;BMP_temperature;BMP_pressure;BME280_temperature;BME280_humidity;BME280_pressure;Samples;Min_cycle;Max_cycle;Signal;HPM_P1;HPM_P2
2023/05/15 00:01:23;;;;;;;18.60;8.38;;;;;;;11.52;100.00;99721.75;5529108;32;33895;-75
2023/05/15 00:04:26;;;;;;;32.90;9.50;;;;;;;11.52;100.00;99719.09;5529225;32;33819;-74
2023/05/15 00:07:29;;;;;;;32.40;9.35;;;;;;;11.50;100.00;99721.16;5529019;32;34062;-74
2023/05/15 00:10:32;;;;;;;23.48;8.80;;;;;;;11.55;100.00;99718.75;5528297;32;34382;-74
2023/05/15 00:13:34;;;;;;;19.48;9.48;;;;;;;11.56;100.00;99723.06;5529179;32;33808;-75
2023/05/15 00:16:37;;;;;;;15.90;8.70;;;;;;;11.58;100.00;99713.03;5529059;32;34124;-76
2023/05/15 00:19:40;;;;;;;17.52;9.07;;;;;;;11.54;100.00;99709.13;5529006;32;33804;-77
2023/05/15 00:22:43;;;;;;;27.00;10.57;;;;;;;11.48;100.00;99709.88;5529081;32;34499;-75
2023/05/15 00:25:46;;;;;;;13.75;9.18;;;;;;;11.49;100.00;99713.38;5529114;32;34686;-76
2023/05/15 00:28:49;;;;;;;36.55;10.13;;;;;;;11.54;100.00;99718.94;5528906;32;33735;-76
2023/05/15 00:31:52;;;;;;;14.77;9.18;;;;;;;11.53;100.00;99727.91;5529085;32;34182;-76
2023/05/15 00:34:55;;;;;;;16.33;9.00;;;;;;;11.54;100.00;99733.03;5529012;32;33577;-76
2023/05/15 00:37:57;;;;;;;58.33;10.15;;;;;;;11.56;100.00;99749.63;5528931;32;33840;-74
2023/05/15 00:41:01;;;;;;;31.65;10.27;;;;;;;11.59;100.00;99748.41;5528948;32;34460;-74
2023/05/15 00:44:04;;;;;;;30.40;9.95;;;;;;;11.63;100.00;99734.56;5528902;32;34005;-74
2023/05/15 00:47:10;;;;;;;40.47;11.00;;;;;;;11.66;100.00;99733.38;5528996;32;34344;-74
2023/05/15 00:50:13;;;;;;;22.55;9.18;;;;;;;11.70;100.00;99726.66;5528903;32;34350;-76
2023/05/15 00:53:17;;;;;;;19.10;9.90;;;;;;;11.66;100.00;99717.41;5528776;32;33653;-75
2023/05/15 00:56:20;;;;;;;37.90;10.82;;;;;;;11.64;100.00;99722.09;5528775;32;34304;-75
2023/05/15 00:59:30;;;;;;;15.63;9.18;;;;;;;11.64;100.00;99717.59;5529106;32;33985;-75
2023/05/15 01:02:33;;;;;;;17.23;9.68;;;;;;;11.68;100.00;99720.69;5528650;32;33464;-74
2023/05/15 01:05:36;;;;;;;19.95;9.88;;;;;;;11.61;100.00;99715.34;5527686;32;34011;-74
2023/05/15 01:08:45;;;;;;;24.52;10.65;;;;;;;11.61;100.00;99712.69;5528901;32;33727;-75
2023/05/15 01:11:49;;;;;;;52.15;11.52;;;;;;;11.66;100.00;99712.94;5528594;32;33855;-76
2023/05/15 01:14:52;;;;;;;16.48;9.63;;;;;;;11.67;100.00;99703.94;5528581;32;33631;-76
2023/05/15 01:17:55;;;;;;;12.63;9.30;;;;;;;11.70;100.00;99697.41;5528893;32;33964;-76
2023/05/15 01:21:04;;;;;;;43.03;11.05;;;;;;;11.72;100.00;99700.69;5528478;32;34462;-76
2023/05/15 01:24:31;;;;;;;15.35;9.48;;;;;;;11.68;100.00;99689.63;5528401;32;33836;-77
2023/05/15 01:27:46;;;;;;;18.37;10.35;;;;;;;11.66;100.00;99704.97;5528308;32;33847;-77
2023/05/15 01:30:51;;;;;;;14.23;9.05;;;;;;;11.69;100.00;99691.28;5528428;32;34042;-77
2023/05/15 01:34:01;;;;;;;45.08;10.57;;;;;;;11.72;100.00;99674.97;5528267;32;34741;-77
2023/05/15 01:37:07;;;;;;;30.60;10.10;;;;;;;11.72;100.00;99682.94;5528290;32;34802;-78
2023/05/15 01:40:13;;;;;;;12.07;9.40;;;;;;;11.70;100.00;99682.31;5528285;32;33770;-78
2023/05/15 01:43:20;;;;;;;25.98;9.63;;;;;;;11.67;100.00;99689.81;5528202;32;34489;-78
2023/05/15 01:46:26;;;;;;;14.73;9.50;;;;;;;11.67;100.00;99685.31;5528142;32;33883;-79
2023/05/15 01:49:34;;;;;;;15.27;9.23;;;;;;;11.64;100.00;99675.09;5527915;32;34670;-77
2023/05/15 01:52:40;;;;;;;15.80;9.52;;;;;;;11.68;100.00;99655.09;5527883;32;33911;-78
2023/05/15 01:55:44;;;;;;;18.35;9.48;;;;;;;11.65;100.00;99646.69;5528025;32;34684;-76
2023/05/15 01:58:47;;;;;;;14.90;9.50;;;;;;;11.64;100.00;99645.88;5527906;32;33832;-75
2023/05/15 02:01:51;;;;;;;17.35;9.82;;;;;;;11.59;100.00;99650.94;5528253;32;34546;-77
2023/05/15 02:04:55;;;;;;;16.37;10.32;;;;;;;11.60;100.00;99649.94;5527754;32;33773;-76
2023/05/15 02:07:59;;;;;;;24.10;10.13;;;;;;;11.53;100.00;99638.41;5527845;32;34526;-77
2023/05/15 02:11:02;;;;;;;32.78;11.23;;;;;;;11.55;100.00;99652.34;5527975;32;33828;-78
2023/05/15 02:14:08;;;;;;;22.95;10.80;;;;;;;11.51;100.00;99660.88;5527687;32;33545;-77
2023/05/15 02:17:10;;;;;;;16.37;10.30;;;;;;;11.51;100.00;99668.84;5530294;32;33719;-76
2023/05/15 02:20:13;;;;;;;16.02;11.23;;;;;;;11.52;100.00;99673.16;5530485;32;33946;-77
2023/05/15 02:23:16;;;;;;;18.08;12.02;;;;;;;11.48;100.00;99669.22;5530086;32;34496;-77
2023/05/15 02:26:40;;;;;;;16.20;11.23;;;;;;;11.47;100.00;99667.59;5530078;32;33676;-76
2023/05/15 02:30:13;;;;;;;21.73;11.15;;;;;;;11.55;100.00;99686.03;5529881;32;34593;-77
2023/05/15 02:33:17;;;;;;;19.48;12.18;;;;;;;11.59;100.00;99695.28;5529962;32;34123;-77
2023/05/15 02:36:24;;;;;;;17.12;11.25;;;;;;;11.61;100.00;99694.09;5529879;32;34876;-76
2023/05/15 02:39:28;;;;;;;14.50;10.88;;;;;;;11.69;100.00;99703.75;5530243;32;34343;-76
2023/05/15 02:42:32;;;;;;;15.90;11.70;;;;;;;11.64;100.00;99711.47;5529881;32;33958;-75
2023/05/15 02:45:35;;;;;;;32.85;12.52;;;;;;;11.63;100.00;99707.16;5529759;32;33869;-75
2023/05/15 02:48:40;;;;;;;21.37;12.30;;;;;;;11.59;100.00;99704.06;5529668;32;33862;-74
2023/05/15 02:51:43;;;;;;;20.27;11.80;;;;;;;11.65;100.00;99699.84;5529528;32;33575;-75
2023/05/15 02:54:46;;;;;;;23.30;12.57;;;;;;;11.62;100.00;99693.03;5529714;32;33686;-75
2023/05/15 02:57:48;;;;;;;28.00;13.68;;;;;;;11.64;100.00;99692.88;5529775;32;33520;-75
2023/05/15 03:00:51;;;;;;;19.08;13.10;;;;;;;11.66;100.00;99686.38;5529678;32;33950;-75
2023/05/15 03:03:54;;;;;;;28.67;13.30;;;;;;;11.69;100.00;99685.16;5528835;32;33996;-75
2023/05/15 03:06:56;;;;;;;49.17;13.55;;;;;;;11.68;100.00;99680.84;5529510;32;34403;-76
2023/05/15 03:09:59;;;;;;;37.45;12.80;;;;;;;11.68;100.00;99686.16;5524646;32;33628;-75
2023/05/15 03:13:02;;;;;;;67.70;14.90;;;;;;;11.68;100.00;99679.00;5527639;32;33591;-75
2023/05/15 03:16:05;;;;;;;40.17;14.32;;;;;;;11.70;100.00;99677.00;5529595;32;34573;-75
2023/05/15 03:19:07;;;;;;;25.88;13.13;;;;;;;11.73;100.00;99675.81;5529549;32;33935;-75
2023/05/15 03:22:10;;;;;;;27.08;13.32;;;;;;;11.68;100.00;99670.22;5529916;32;34004;-76
2023/05/15 03:25:13;;;;;;;22.40;13.00;;;;;;;11.71;100.00;99645.94;5529624;32;33604;-75
2023/05/15 03:28:15;;;;;;;25.25;12.55;;;;;;;11.73;100.00;99650.06;5529032;32;34322;-76
2023/05/15 03:31:18;;;;;;;34.78;14.25;;;;;;;11.76;100.00;99649.66;5529395;32;33688;-76
2023/05/15 03:34:21;;;;;;;18.87;12.30;;;;;;;11.75;100.00;99645.38;5529385;32;34709;-76
2023/05/15 03:37:23;;;;;;;18.52;11.93;;;;;;;11.76;100.00;99630.25;5529266;32;33860;-77
2023/05/15 03:40:26;;;;;;;24.48;12.48;;;;;;;11.81;100.00;99619.06;5529413;32;34045;-77
2023/05/15 03:43:28;;;;;;;32.00;12.85;;;;;;;11.83;100.00;99617.00;5529268;32;33827;-77
2023/05/15 03:46:31;;;;;;;33.38;12.63;;;;;;;11.77;100.00;99618.59;5529314;32;34555;-77
2023/05/15 03:49:34;;;;;;;18.67;12.90;;;;;;;11.76;100.00;99627.59;5529132;32;34500;-77
2023/05/15 03:52:38;;;;;;;21.58;13.98;;;;;;;11.69;100.00;99627.50;5529183;32;34898;-78
2023/05/15 03:55:43;;;;;;;21.52;13.30;;;;;;;11.72;100.00;99605.03;5529137;32;33901;-78
2023/05/15 03:58:46;;;;;;;21.05;12.98;;;;;;;11.86;100.00;99601.47;5529285;32;35123;-78
2023/05/15 04:01:48;;;;;;;19.20;13.23;;;;;;;11.77;100.00;99621.25;5529156;32;33673;-78
2023/05/15 04:05:07;;;;;;;20.52;13.20;;;;;;;11.77;100.00;99619.41;5529235;32;34086;-78
2023/05/15 04:08:11;;;;;;;24.30;13.35;;;;;;;11.79;100.00;99621.91;5529298;32;34525;-79
2023/05/15 04:11:15;;;;;;;22.55;13.80;;;;;;;11.90;100.00;99612.56;5530381;32;33826;-78
2023/05/15 04:14:17;;;;;;;19.42;12.23;;;;;;;11.99;100.00;99611.41;5529036;32;34624;-78
2023/05/15 04:17:20;;;;;;;25.35;13.00;;;;;;;11.94;100.00;99603.19;5529101;32;33549;-79
2023/05/15 04:20:24;;;;;;;20.23;13.13;;;;;;;11.94;100.00;99597.87;5529023;32;33533;-79
2023/05/15 04:23:26;;;;;;;21.65;14.07;;;;;;;11.89;100.00;99592.31;5529344;32;33868;-80
2023/05/15 04:26:30;;;;;;;20.58;13.85;;;;;;;11.82;100.00;99602.06;5528968;32;34510;-79
2023/05/15 04:29:33;;;;;;;20.48;13.57;;;;;;;11.84;100.00;99597.37;5528640;32;33797;-80
2023/05/15 04:32:36;;;;;;;19.15;14.75;;;;;;;11.90;100.00;99602.75;5528984;32;34048;-80
2023/05/15 04:35:39;;;;;;;19.05;14.50;;;;;;;11.84;100.00;99600.03;5528822;32;34588;-81
2023/05/15 04:38:42;;;;;;;23.60;15.85;;;;;;;11.86;100.00;99588.19;5535559;32;33774;-80
2023/05/15 04:41:45;;;;;;;20.73;15.02;;;;;;;11.83;100.00;99598.41;5548222;32;34556;-79
2023/05/15 04:44:48;;;;;;;28.40;15.63;;;;;;;11.87;100.00;99604.97;5548266;32;34873;-79
2023/05/15 04:47:50;;;;;;;23.83;15.75;;;;;;;11.93;100.00;99614.81;5548183;32;33888;-79
2023/05/15 04:50:53;;;;;;;20.77;15.20;;;;;;;12.01;100.00;99612.81;5547922;32;34550;-79
2023/05/15 04:53:56;;;;;;;23.40;15.80;;;;;;;12.07;100.00;99619.19;5548174;32;33750;-79
2023/05/15 04:56:59;;;;;;;22.00;15.27;;;;;;;11.97;100.00;99626.72;5547744;32;34305;-78
2023/05/15 05:00:04;;;;;;;23.55;15.73;;;;;;;12.06;100.00;99631.66;5547872;32;33897;-79
2023/05/15 05:03:07;;;;;;;22.83;17.02;;;;;;;12.10;100.00;99638.22;5547827;32;33797;-78
2023/05/15 05:06:10;;;;;;;26.33;16.75;;;;;;;12.05;100.00;99656.59;5547795;32;33822;-78
2023/05/15 05:09:13;;;;;;;28.23;17.55;;;;;;;11.91;100.00;99662.84;5546925;32;34029;-77
2023/05/15 05:12:16;;;;;;;25.27;18.17;;;;;;;11.99;100.00;99665.37;5548068;32;34528;-79
2023/05/15 05:15:18;;;;;;;25.08;18.45;;;;;;;12.00;100.00;99661.72;5547652;32;33896;-79
2023/05/15 05:18:21;;;;;;;31.45;19.15;;;;;;;12.10;100.00;99661.38;5547724;32;34074;-79
2023/05/15 05:21:24;;;;;;;31.95;20.15;;;;;;;12.13;100.00;99664.44;5546384;32;33960;-79
2023/05/15 05:24:27;;;;;;;26.02;17.33;;;;;;;12.32;100.00;99665.59;5543707;32;33730;-79
2023/05/15 05:27:29;;;;;;;24.17;16.70;;;;;;;12.36;100.00;99676.62;5545088;32;34601;-78
2023/05/15 05:30:32;;;;;;;21.05;16.83;;;;;;;12.24;100.00;99679.03;5527422;32;33832;-77
2023/05/15 05:33:35;;;;;;;23.60;17.35;;;;;;;12.11;100.00;99676.28;5528279;32;33679;-77
2023/05/15 05:36:38;;;;;;;20.95;16.95;;;;;;;12.15;100.00;99675.69;5527542;32;33662;-79
2023/05/15 05:39:40;;;;;;;24.30;17.55;;;;;;;12.16;100.00;99668.53;5532220;32;34111;-78
2023/05/15 05:42:43;;;;;;;29.05;17.52;;;;;;;12.32;100.00;99667.41;5543561;32;33963;-80
2023/05/15 05:45:46;;;;;;;28.05;18.90;;;;;;;12.23;100.00;99656.13;5530485;32;34479;-81
2023/05/15 05:48:50;;;;;;;26.60;16.90;;;;;;;12.29;100.00;99658.00;5529325;32;33826;-80
2023/05/15 05:51:52;;;;;;;25.73;18.52;;;;;;;12.31;100.00;99666.59;5537126;32;35362;-80
2023/05/15 05:54:55;;;;;;;25.52;18.10;;;;;;;12.49;100.00;99674.06;5531626;32;33957;-79
2023/05/15 05:57:58;;;;;;;26.42;18.70;;;;;;;12.59;100.00;99678.00;5538342;32;34154;-78
2023/05/15 06:01:01;;;;;;;22.33;16.55;;;;;;;12.67;100.00;99682.34;5546275;32;33526;-78
2023/05/15 06:04:04;;;;;;;21.92;16.60;;;;;;;12.75;100.00;99689.31;5546708;32;33880;-77
2023/05/15 06:07:07;;;;;;;21.70;15.95;;;;;;;12.78;100.00;99683.63;5546613;32;33864;-76
2023/05/15 06:10:11;;;;;;;18.30;14.48;;;;;;;13.05;100.00;99680.00;5537860;32;32264;-75
2023/05/15 06:13:14;;;;;;;20.45;14.80;;;;;;;13.21;100.00;99673.53;5542009;32;33651;-74
2023/05/15 06:16:17;;;;;;;20.15;13.25;;;;;;;13.29;100.00;99676.00;5535288;32;33571;-72
2023/05/15 06:19:20;;;;;;;18.65;12.13;;;;;;;13.57;100.00;99676.66;5543509;32;33924;-73
2023/05/15 06:22:23;;;;;;;16.02;12.05;;;;;;;13.65;100.00;99688.97;5545703;32;34518;-73
2023/05/15 06:25:26;;;;;;;14.95;11.63;;;;;;;13.93;100.00;99692.25;5537173;32;33942;-72
2023/05/15 06:28:29;;;;;;;16.60;12.45;;;;;;;13.81;100.00;99693.88;5527156;32;33779;-71
2023/05/15 06:31:31;;;;;;;13.45;11.38;;;;;;;13.94;100.00;99702.69;5531633;32;34658;-72
2023/05/15 06:34:34;;;;;;;17.23;12.80;;;;;;;14.12;100.00;99704.75;5544143;32;34968;-71
2023/05/15 06:37:37;;;;;;;16.10;11.93;;;;;;;14.13;100.00;99690.38;5544751;32;34090;-71
2023/05/15 06:40:40;;;;;;;15.77;11.30;;;;;;;14.46;100.00;99689.53;5545069;32;34132;-71
2023/05/15 06:43:42;;;;;;;17.77;12.35;;;;;;;14.41;100.00;99694.66;5545157;32;32666;-72
2023/05/15 06:46:45;;;;;;;15.45;10.80;;;;;;;14.42;100.00;99682.97;5535087;32;33936;-71
2023/05/15 06:49:48;;;;;;;13.45;10.80;;;;;;;14.47;100.00;99667.97;5545964;32;33819;-71
2023/05/15 06:52:51;;;;;;;14.95;11.07;;;;;;;14.19;100.00;99662.03;5545880;32;33807;-73
2023/05/15 06:55:53;;;;;;;11.23;9.65;;;;;;;14.29;100.00;99667.75;5545002;32;34493;-72
2023/05/15 06:58:56;;;;;;;13.20;10.55;;;;;;;14.17;100.00;99653.44;5545888;32;33601;-71
2023/05/15 07:01:59;;;;;;;11.60;9.90;;;;;;;14.33;100.00;99656.47;5537936;32;33771;-72
2023/05/15 07:05:02;;;;;;;11.02;9.80;;;;;;;14.75;100.00;99655.12;5539976;32;33966;-71
2023/05/15 07:08:05;;;;;;;10.65;8.98;;;;;;;15.41;100.00;99656.59;5547759;32;34083;-71
2023/05/15 07:11:07;;;;;;;10.75;8.48;;;;;;;15.44;100.00;99672.22;5548400;32;33928;-71
2023/05/15 07:14:10;;;;;;;11.77;8.38;;;;;;;15.83;100.00;99674.59;5548295;32;33828;-72
2023/05/15 07:17:13;;;;;;;11.32;8.52;;;;;;;15.83;100.00;99676.47;5548773;32;33741;-71
2023/05/15 07:20:15;;;;;;;9.43;8.48;;;;;;;16.03;100.00;99671.72;5548920;32;33708;-71
2023/05/15 07:23:18;;;;;;;10.40;8.77;;;;;;;16.35;100.00;99681.31;5548854;32;33788;-71
2023/05/15 07:26:21;;;;;;;10.00;8.38;;;;;;;16.44;100.00;99687.19;5533638;32;34004;-71
2023/05/15 07:29:41;;;;;;;10.02;8.35;;;;;;;16.30;100.00;99696.41;5548232;32;34008;-71
2023/05/15 07:32:45;;;;;;;11.55;8.45;;;;;;;16.07;100.00;99699.72;5547982;32;33699;-71
2023/05/15 07:35:51;;;;;;;11.18;9.02;;;;;;;15.70;100.00;99714.00;5547872;32;33036;-71
2023/05/15 07:38:53;;;;;;;10.77;8.95;;;;;;;15.48;100.00;99697.47;5549211;32;33779;-71
2023/05/15 07:41:58;;;;;;;10.68;9.15;;;;;;;15.43;100.00;99694.63;5557838;32;33898;-72
2023/05/15 07:45:02;;;;;;;12.80;8.85;;;;;;;15.17;100.00;99685.72;5552412;32;34012;-72
2023/05/15 07:48:16;;;;;;;12.13;9.00;;;;;;;15.23;100.00;99676.03;5554927;32;33979;-72
2023/05/15 07:51:19;;;;;;;11.35;8.77;;;;;;;15.52;100.00;99674.63;5552417;32;34282;-72
2023/05/15 07:54:22;;;;;;;10.85;8.77;;;;;;;15.54;100.00;99677.94;5545951;32;34475;-72
2023/05/15 07:57:25;;;;;;;9.80;8.80;;;;;;;15.74;100.00;99670.53;5529063;32;33905;-72
2023/05/15 08:00:28;;;;;;;8.85;7.95;;;;;;;15.93;100.00;99672.22;5530042;32;33485;-72
2023/05/15 08:03:31;;;;;;;10.07;8.02;;;;;;;16.25;100.00;99677.50;5529048;32;33873;-72
2023/05/15 08:06:37;;;;;;;9.10;7.28;;;;;;;16.61;100.00;99687.44;5529066;32;33899;-72
2023/05/15 08:09:40;;;;;;;10.52;8.05;;;;;;;16.91;100.00;99707.06;5528868;32;33620;-72
2023/05/15 08:12:45;;;;;;;10.05;8.23;;;;;;;17.24;100.00;99706.63;5528670;32;34235;-72
2023/05/15 08:15:48;;;;;;;11.27;8.35;;;;;;;17.76;100.00;99699.72;5533699;32;34015;-72
2023/05/15 08:18:57;;;;;;;12.95;8.55;;;;;;;18.24;100.00;99712.94;5528773;32;33686;-72
2023/05/15 08:22:00;;;;;;;9.85;8.20;;;;;;;18.32;100.00;99709.91;5528894;32;34885;-73
2023/05/15 08:25:04;;;;;;;10.07;7.93;;;;;;;18.15;100.00;99711.66;5528780;32;34667;-72
2023/05/15 08:28:07;;;;;;;11.63;8.40;;;;;;;17.12;100.00;99700.41;5539587;32;33985;-73
2023/05/15 08:31:10;;;;;;;9.95;7.55;;;;;;;17.33;100.00;99718.69;5547702;32;34332;-73
2023/05/15 08:34:12;;;;;;;8.02;6.87;;;;;;;17.78;100.00;99719.06;5547789;32;34829;-73
2023/05/15 08:37:15;;;;;;;14.95;6.97;;;;;;;17.50;100.00;99711.63;5548169;32;34325;-73
2023/05/15 08:40:20;;;;;;;11.10;8.45;;;;;;;17.51;100.00;99707.09;5548053;32;33703;-74
2023/05/15 08:43:40;;;;;;;8.60;7.10;;;;;;;17.52;100.00;99701.50;5547404;32;34338;-74
2023/05/15 08:46:44;;;;;;;9.23;7.37;;;;;;;17.34;100.00;99704.22;5534587;32;35276;-74
2023/05/15 08:49:59;;;;;;;10.55;7.60;;;;;;;18.27;100.00;99709.78;5547036;32;34531;-76
2023/05/15 08:53:02;;;;;;;7.43;5.90;;;;;;;19.14;100.00;99697.13;5547467;32;34441;-75
2023/05/15 08:56:05;;;;;;;10.50;5.75;;;;;;;19.73;100.00;99692.28;5547790;32;34341;-76
2023/05/15 08:59:08;;;;;;;6.75;5.50;;;;;;;19.84;100.00;99691.41;5547643;32;34351;-76
2023/05/15 09:02:10;;;;;;;5.37;4.60;;;;;;;19.77;100.00;99688.06;5546701;32;33725;-74
2023/05/15 09:05:13;;;;;;;6.12;4.78;;;;;;;20.55;100.00;99684.41;5547417;32;34531;-78
2023/05/15 09:08:18;;;;;;;4.03;3.62;;;;;;;20.26;100.00;99673.75;5547188;32;33858;-79
2023/05/15 09:11:23;;;;;;;5.50;3.60;;;;;;;20.69;100.00;99691.84;5546731;32;33914;-78
2023/05/15 09:14:25;;;;;;;4.05;3.33;;;;;;;21.07;100.00;99699.06;5529869;32;34010;-79
2023/05/15 09:17:28;;;;;;;3.60;2.78;;;;;;;21.10;100.00;99713.94;5542277;32;35062;-73
2023/05/15 09:20:36;;;;;;;4.03;2.55;;;;;;;18.75;100.00;99712.19;5547484;32;33913;-78
2023/05/15 09:23:39;;;;;;;2.22;2.00;;;;;;;18.46;100.00;99713.97;5540395;32;33772;-79
2023/05/15 09:26:42;;;;;;;5.47;2.00;;;;;;;18.51;100.00;99715.94;5536099;32;34499;-76
2023/05/15 09:29:45;;;;;;;1.70;1.60;;;;;;;18.85;100.00;99725.84;5546994;32;33795;-74
2023/05/15 09:32:48;;;;;;;1.98;1.67;;;;;;;20.14;97.45;99728.78;5546716;32;34544;-74
2023/05/15 09:35:52;;;;;;;2.47;1.90;;;;;;;19.97;100.00;99728.75;5547236;32;33468;-79
2023/05/15 09:38:59;;;;;;;2.10;1.90;;;;;;;19.83;100.00;99749.81;5547183;32;33774;-75
2023/05/15 09:42:06;;;;;;;2.08;1.70;;;;;;;20.00;100.00;99752.50;5547583;32;33869;-76
2023/05/15 09:45:16;;;;;;;3.12;1.87;;;;;;;19.72;96.14;99742.59;5547719;32;33961;-74
2023/05/15 09:48:21;;;;;;;3.08;2.10;;;;;;;19.84;95.89;99748.75;5544345;32;33833;-72
2023/05/15 09:51:27;;;;;;;2.08;1.87;;;;;;;20.63;90.40;99748.63;5545588;32;33807;-73
2023/05/15 09:54:30;;;;;;;2.83;2.03;;;;;;;20.69;93.80;99745.78;5548434;32;34314;-77
2023/05/15 09:57:33;;;;;;;2.50;2.03;;;;;;;20.23;100.00;99741.59;5534826;32;33754;-73
2023/05/15 10:00:38;;;;;;;3.55;1.67;;;;;;;19.75;98.79;99744.00;5546721;32;33603;-75
2023/05/15 10:04:02;;;;;;;2.62;1.92;;;;;;;19.29;100.00;99748.50;5546953;32;33710;-77
2023/05/15 10:07:06;;;;;;;2.70;2.20;;;;;;;18.55;100.00;99747.50;5546047;32;33777;-71
2023/05/15 10:10:10;;;;;;;3.00;1.92;;;;;;;18.94;100.00;99740.53;5543530;32;34084;-74
2023/05/15 10:13:13;;;;;;;5.90;2.12;;;;;;;18.54;100.00;99743.19;5546886;32;34610;-75
2023/05/15 10:16:20;;;;;;;3.35;2.00;;;;;;;18.75;100.00;99739.06;5550322;32;34486;-73
2023/05/15 10:19:26;;;;;;;3.67;1.80;;;;;;;18.97;100.00;99742.78;5546616;32;33675;-71
2023/05/15 10:22:34;;;;;;;2.10;1.80;;;;;;;19.98;100.00;99740.34;5546346;32;34543;-74
2023/05/15 10:25:38;;;;;;;1.80;1.50;;;;;;;21.65;81.39;99746.91;5546285;32;34515;-74
2023/05/15 10:28:44;;;;;;;4.10;1.40;;;;;;;22.48;73.92;99744.63;5545906;32;33789;-75
2023/05/15 10:31:47;;;;;;;2.40;1.40;;;;;;;22.09;74.85;99750.31;5545212;32;33772;-76
2023/05/15 10:34:52;;;;;;;1.70;1.17;;;;;;;22.31;80.90;99742.13;5544868;32;34119;-73
2023/05/15 10:37:56;;;;;;;1.65;1.00;;;;;;;22.09;72.10;99746.78;5548125;32;33750;-75
2023/05/15 10:41:03;;;;;;;0.80;0.80;;;;;;;21.25;76.35;99744.59;5548879;32;33529;-74
2023/05/15 10:44:28;;;;;;;4.95;1.02;;;;;;;20.93;75.34;99742.84;5549030;32;33879;-70
2023/05/15 10:47:33;;;;;;;1.10;0.80;;;;;;;20.97;79.87;99747.47;5548655;32;34884;-72
2023/05/15 10:50:39;;;;;;;2.65;0.80;;;;;;;22.47;68.39;99746.53;5549175;32;33854;-70
2023/05/15 10:53:43;;;;;;;0.90;0.80;;;;;;;23.19;62.00;99748.53;5545581;32;33809;-71
2023/05/15 10:56:47;;;;;;;1.30;0.80;;;;;;;22.34;62.62;99756.97;5549207;32;33955;-72
2023/05/15 10:59:53;;;;;;;1.15;0.73;;;;;;;21.80;63.78;99750.81;5546140;32;34928;-74
2023/05/15 11:02:57;;;;;;;0.52;0.50;;;;;;;21.86;62.69;99745.22;5545332;32;33738;-75
2023/05/15 11:06:11;;;;;;;2.85;0.90;;;;;;;22.27;61.11;99745.59;5529321;32;33710;-74
2023/05/15 11:09:20;;;;;;;0.80;0.70;;;;;;;22.78;60.59;99758.38;5529120;32;33853;-72
2023/05/15 11:12:46;;;;;;;0.80;0.70;;;;;;;22.20;61.94;99753.09;5567162;32;33808;-71
2023/05/15 11:15:52;;;;;;;1.00;0.90;;;;;;;21.64;66.27;99747.97;5567816;31;34191;-69
2023/05/15 11:18:55;;;;;;;3.95;0.95;;;;;;;21.33;70.40;99745.22;5567752;32;33922;-68
2023/05/15 11:22:00;;;;;;;3.08;0.90;;;;;;;22.16;73.41;99747.41;5567787;32;34467;-69
2023/05/15 11:25:09;;;;;;;1.10;0.73;;;;;;;25.40;57.19;99742.41;5567816;32;34562;-70
2023/05/15 11:28:21;;;;;;;1.90;0.60;;;;;;;24.96;54.03;99736.94;5565626;32;34621;-69
2023/05/15 11:31:29;;;;;;;3.85;1.00;;;;;;;21.88;60.81;99724.16;5545030;32;33678;-70
2023/05/15 11:34:33;;;;;;;1.60;1.30;;;;;;;21.68;76.55;99721.31;5547674;32;33815;-71
2023/05/15 11:37:42;;;;;;;3.85;1.23;;;;;;;20.89;78.21;99720.97;5541035;32;34663;-70
2023/05/15 11:40:46;;;;;;;1.45;1.00;;;;;;;21.58;77.22;99730.12;5534918;32;33772;-73
2023/05/15 11:43:49;;;;;;;1.10;0.85;;;;;;;21.31;79.10;99717.69;5548292;32;33897;-71
2023/05/15 11:46:52;;;;;;;1.70;1.10;;;;;;;20.45;78.29;99720.09;5521712;32;33747;-70
2023/05/15 11:49:56;;;;;;;1.35;0.90;;;;;;;20.10;83.21;99720.34;5547067;32;35544;-71
2023/05/15 11:53:04;;;;;;;2.05;1.30;;;;;;;20.56;83.86;99712.97;5547667;32;34972;-71
2023/05/15 11:56:21;;;;;;;2.33;1.00;;;;;;;20.22;92.15;99720.28;5531756;32;33928;-72
2023/05/15 11:59:26;;;;;;;1.17;1.00;;;;;;;19.94;92.28;99711.22;5528236;32;34338;-70
2023/05/15 12:02:29;;;;;;;9.65;1.30;;;;;;;19.93;90.91;99711.47;5529332;32;33821;-71
2023/05/15 12:05:32;;;;;;;3.83;1.00;;;;;;;18.65;100.00;99717.34;5529218;32;33584;-70
2023/05/15 12:08:38;;;;;;;1.92;1.10;;;;;;;18.52;98.93;99717.59;5535322;32;34125;-70
2023/05/15 12:11:50;;;;;;;3.90;1.10;;;;;;;18.34;100.00;99720.41;5548055;32;34907;-72
2023/05/15 12:14:57;;;;;;;1.30;1.00;;;;;;;18.60;100.00;99722.62;5548179;32;33684;-70
2023/05/15 12:18:02;;;;;;;2.93;1.10;;;;;;;18.51;100.00;99719.44;5546648;32;33765;-70
2023/05/15 12:21:05;;;;;;;1.40;1.10;;;;;;;18.97;100.00;99732.03;5547553;32;34183;-71
2023/05/15 12:24:11;;;;;;;3.42;1.20;;;;;;;19.00;100.00;99723.47;5545294;32;33925;-71
2023/05/15 12:27:15;;;;;;;2.35;1.30;;;;;;;19.35;98.24;99731.44;5547561;32;35042;-73
2023/05/15 12:30:18;;;;;;;4.18;1.67;;;;;;;19.13;97.77;99735.81;5547746;32;33839;-71
2023/05/15 12:33:22;;;;;;;1.27;1.02;;;;;;;18.50;100.00;99723.19;5547894;32;34025;-72
2023/05/15 12:36:28;;;;;;;3.75;1.20;;;;;;;18.91;100.00;99729.47;5548319;32;34273;-70
2023/05/15 12:39:31;;;;;;;3.83;1.20;;;;;;;18.67;100.00;99736.75;5548367;32;32697;-73
2023/05/15 12:42:42;;;;;;;5.95;1.23;;;;;;;18.76;100.00;99735.34;5547902;32;33794;-71
2023/05/15 12:45:45;;;;;;;5.43;1.40;;;;;;;18.65;100.00;99726.25;5547754;32;33803;-71
2023/05/15 12:48:50;;;;;;;2.75;1.30;;;;;;;18.73;100.00;99726.94;5546840;32;33623;-71
2023/05/15 12:51:53;;;;;;;4.82;1.30;;;;;;;18.81;100.00;99727.37;5547053;32;34984;-73
2023/05/15 12:54:59;;;;;;;1.60;1.17;;;;;;;18.82;100.00;99728.19;5547806;32;34875;-71
2023/05/15 12:58:06;;;;;;;5.45;1.73;;;;;;;19.47;100.00;99734.06;5549505;32;33904;-74
2023/05/15 13:01:10;;;;;;;1.80;1.30;;;;;;;19.86;94.11;99719.69;5545951;32;33988;-71
2023/05/15 13:04:15;;;;;;;5.22;1.33;;;;;;;19.80;92.30;99712.59;5545057;32;33940;-71
2023/05/15 13:07:22;;;;;;;2.95;1.10;;;;;;;19.78;93.39;99713.91;5528571;32;33851;-71
2023/05/15 13:10:25;;;;;;;9.10;1.33;;;;;;;20.38;90.01;99708.69;5528113;32;33984;-70
2023/05/15 13:13:45;;;;;;;5.18;1.00;;;;;;;19.74;90.95;99708.22;5527254;32;34563;-71
2023/05/15 13:16:48;;;;;;;1.00;0.90;;;;;;;19.80;89.47;99703.72;5528051;32;33817;-71
2023/05/15 13:19:52;;;;;;;2.33;1.10;;;;;;;19.43;91.26;99708.69;5527372;32;33730;-71
2023/05/15 13:22:55;;;;;;;2.75;0.95;;;;;;;19.45;93.91;99717.38;5527987;32;34661;-71
2023/05/15 13:25:58;;;;;;;0.90;0.80;;;;;;;19.37;96.76;99710.47;5528101;32;33689;-70
2023/05/15 13:29:01;;;;;;;4.60;0.90;;;;;;;18.93;97.86;99714.72;5527836;32;33782;-71
2023/05/15 13:32:05;;;;;;;3.60;0.82;;;;;;;18.43;100.00;99697.50;5532159;32;33942;-71
2023/05/15 13:35:09;;;;;;;2.08;1.00;;;;;;;18.60;99.58;99701.13;5547360;32;33602;-71
2023/05/15 13:38:13;;;;;;;1.25;0.90;;;;;;;18.75;99.22;99695.25;5531910;32;34738;-70
2023/05/15 13:41:16;;;;;;;3.03;0.80;;;;;;;18.74;100.00;99690.94;5535459;32;34708;-71
2023/05/15 13:44:20;;;;;;;4.40;0.80;;;;;;;18.52;97.57;99698.78;5528085;32;33587;-70
2023/05/15 13:47:23;;;;;;;2.42;0.80;;;;;;;18.40;94.98;99696.09;5529197;32;33900;-70
2023/05/15 13:50:26;;;;;;;1.52;0.70;;;;;;;18.75;91.72;99690.69;5535383;32;34782;-70
2023/05/15 13:53:29;;;;;;;2.17;0.80;;;;;;;18.40;95.69;99693.41;5535615;32;34950;-70
2023/05/15 13:56:32;;;;;;;5.00;0.90;;;;;;;18.43;96.35;99695.66;5527830;32;33545;-71
2023/05/15 13:59:35;;;;;;;1.08;0.80;;;;;;;18.60;97.93;99690.38;5538032;32;33606;-70
2023/05/15 14:02:40;;;;;;;1.35;0.70;;;;;;;18.37;100.00;99679.66;5545387;32;34531;-71
2023/05/15 14:05:48;;;;;;;1.27;1.02;;;;;;;18.12;96.98;99688.75;5538134;32;33970;-71
2023/05/15 14:08:51;;;;;;;4.37;0.98;;;;;;;18.08;99.78;99694.84;5541903;32;33902;-71
2023/05/15 14:11:54;;;;;;;1.00;0.70;;;;;;;18.03;100.00;99695.53;5543849;32;34357;-70